JAI2733 VABB-VOGO
Flight info
| Callsign | JAI2733 |
|---|---|
| Flight time | 0h 47m |
| Altitude | 35000 |
| Route | VEVAK2AXMABTA/27 MABTA W15 UDULO UDULO2E |
| Aircraft | B738/M-SDE2E3FGHIRWXY/LB1 |
Departure
| Time | 2026-05-06 08:17 |
|---|---|
| Airport | Chhatrapati Shivaji Maharaj International Airport (VABB) |
Arrival
| Time | 2026-05-06 09:04 |
|---|---|
| Airport | Goa Dabolim International Airport (VOGO) |
| Time | Latitude | Longitude | Altitude | Speed | Heading |
|---|---|---|---|---|---|
| 2026-05-06 08:10 | 19.09132 | 72.86951 | 31 ft | 3 kts | 96° |
| 2026-05-06 08:11 | 19.09131 | 72.86963 | 31 ft | 0 kts | 96° |
| 2026-05-06 08:11 | 19.09131 | 72.86965 | 31 ft | 0 kts | 96° |
| 2026-05-06 08:11 | 19.09131 | 72.86967 | 31 ft | 0 kts | 96° |
| 2026-05-06 08:11 | 19.09131 | 72.86969 | 31 ft | 0 kts | 90° |
| 2026-05-06 08:12 | 19.09131 | 72.86977 | 31 ft | 2 kts | 84° |
| 2026-05-06 08:12 | 19.09133 | 72.87031 | 31 ft | 11 kts | 88° |
| 2026-05-06 08:12 | 19.09134 | 72.87139 | 31 ft | 18 kts | 89° |
| 2026-05-06 08:12 | 19.09088 | 72.87261 | 30 ft | 18 kts | 156° |
| 2026-05-06 08:13 | 19.09050 | 72.87348 | 29 ft | 14 kts | 87° |
| 2026-05-06 08:13 | 19.09054 | 72.87482 | 29 ft | 21 kts | 89° |
| 2026-05-06 08:13 | 19.09058 | 72.87662 | 31 ft | 27 kts | 90° |
| 2026-05-06 08:13 | 19.09059 | 72.87884 | 34 ft | 32 kts | 88° |
| 2026-05-06 08:14 | 19.08996 | 72.88063 | 39 ft | 19 kts | 192° |
| 2026-05-06 08:14 | 19.08947 | 72.88042 | 38 ft | 0 kts | 199° |
| 2026-05-06 08:16 | 19.08913 | 72.88024 | 37 ft | 11 kts | 216° |
| 2026-05-06 08:16 | 19.08889 | 72.87936 | 35 ft | 16 kts | 265° |
| 2026-05-06 08:16 | 19.08881 | 72.87549 | 28 ft | 105 kts | 271° |
| 2026-05-06 08:17 | 19.08899 | 72.86459 | 279 ft | 181 kts | 273° |
| 2026-05-06 08:17 | 19.08955 | 72.84937 | 725 ft | 227 kts | 273° |
| 2026-05-06 08:17 | 19.08991 | 72.83581 | 1059 ft | 256 kts | 272° |
| 2026-05-06 08:17 | 19.09018 | 72.81441 | 2781 ft | 259 kts | 271° |
| 2026-05-06 08:18 | 19.09014 | 72.79532 | 4017 ft | 269 kts | 271° |
| 2026-05-06 08:18 | 19.08985 | 72.77584 | 5244 ft | 275 kts | 270° |
| 2026-05-06 08:18 | 19.08928 | 72.75551 | 6442 ft | 282 kts | 269° |
| 2026-05-06 08:18 | 19.08705 | 72.73509 | 7514 ft | 291 kts | 252° |
| 2026-05-06 08:19 | 19.07550 | 72.71825 | 8656 ft | 289 kts | 220° |
| 2026-05-06 08:19 | 19.05744 | 72.70873 | 8927 ft | 297 kts | 192° |
| 2026-05-06 08:19 | 19.03701 | 72.70930 | 9031 ft | 296 kts | 171° |
| 2026-05-06 08:19 | 19.01650 | 72.71232 | 9025 ft | 297 kts | 172° |
| 2026-05-06 08:20 | 18.99639 | 72.71499 | 9017 ft | 287 kts | 172° |
| 2026-05-06 08:20 | 18.97573 | 72.71764 | 9076 ft | 308 kts | 172° |
| 2026-05-06 08:20 | 18.95479 | 72.72029 | 9917 ft | 302 kts | 172° |
| 2026-05-06 08:20 | 18.93407 | 72.72293 | 11233 ft | 304 kts | 172° |
| 2026-05-06 08:21 | 18.91354 | 72.72555 | 12490 ft | 305 kts | 172° |
| 2026-05-06 08:21 | 18.89263 | 72.72819 | 13740 ft | 305 kts | 172° |
| 2026-05-06 08:21 | 18.87195 | 72.73082 | 14980 ft | 303 kts | 172° |
| 2026-05-06 08:21 | 18.85157 | 72.73341 | 16209 ft | 299 kts | 172° |
| 2026-05-06 08:22 | 18.83144 | 72.73597 | 17441 ft | 293 kts | 172° |
| 2026-05-06 08:22 | 18.81173 | 72.73847 | 18671 ft | 285 kts | 172° |
| 2026-05-06 08:22 | 18.79277 | 72.74088 | 19845 ft | 276 kts | 172° |
| 2026-05-06 08:22 | 18.77434 | 72.74422 | 21006 ft | 264 kts | 162° |
| 2026-05-06 08:23 | 18.75766 | 72.74972 | 22167 ft | 249 kts | 161° |
| 2026-05-06 08:23 | 18.74207 | 72.75508 | 23307 ft | 231 kts | 160° |
| 2026-05-06 08:23 | 18.72783 | 72.76001 | 24420 ft | 208 kts | 160° |
| 2026-05-06 08:23 | 18.71535 | 72.76434 | 25489 ft | 178 kts | 160° |
| 2026-05-06 08:24 | 18.70457 | 72.76811 | 26073 ft | 169 kts | 159° |
| 2026-05-06 08:24 | 18.69205 | 72.77297 | 25646 ft | 219 kts | 157° |
| 2026-05-06 08:24 | 18.67724 | 72.77863 | 25984 ft | 228 kts | 165° |
| 2026-05-06 08:24 | 18.66248 | 72.78295 | 26615 ft | 216 kts | 161° |
| 2026-05-06 08:25 | 18.64847 | 72.78769 | 27148 ft | 215 kts | 161° |
| 2026-05-06 08:25 | 18.63427 | 72.79257 | 27639 ft | 217 kts | 160° |
| 2026-05-06 08:25 | 18.61993 | 72.79754 | 28169 ft | 216 kts | 160° |
| 2026-05-06 08:25 | 18.60590 | 72.80240 | 28670 ft | 212 kts | 160° |
| 2026-05-06 08:26 | 18.59216 | 72.80717 | 29149 ft | 209 kts | 160° |
| 2026-05-06 08:26 | 18.57844 | 72.81194 | 29462 ft | 212 kts | 160° |
| 2026-05-06 08:26 | 18.56431 | 72.81684 | 29815 ft | 213 kts | 160° |
| 2026-05-06 08:26 | 18.55027 | 72.82172 | 30163 ft | 215 kts | 160° |
| 2026-05-06 08:27 | 18.53614 | 72.82661 | 30510 ft | 215 kts | 160° |
| 2026-05-06 08:27 | 18.52186 | 72.83157 | 30708 ft | 225 kts | 160° |
| 2026-05-06 08:27 | 18.50640 | 72.83695 | 30773 ft | 241 kts | 161° |
| 2026-05-06 08:27 | 18.48999 | 72.84264 | 30898 ft | 256 kts | 161° |
| 2026-05-06 08:28 | 18.47253 | 72.84869 | 31024 ft | 272 kts | 161° |
| 2026-05-06 08:28 | 18.45439 | 72.85498 | 31151 ft | 287 kts | 161° |
| 2026-05-06 08:28 | 18.43476 | 72.86178 | 31286 ft | 303 kts | 161° |
| 2026-05-06 08:28 | 18.41429 | 72.86887 | 31423 ft | 319 kts | 161° |
| 2026-05-06 08:29 | 18.39273 | 72.87634 | 31549 ft | 333 kts | 161° |
| 2026-05-06 08:29 | 18.37044 | 72.88406 | 31884 ft | 342 kts | 161° |
| 2026-05-06 08:29 | 18.34777 | 72.89191 | 32225 ft | 351 kts | 161° |
| 2026-05-06 08:29 | 18.32440 | 72.89999 | 32549 ft | 360 kts | 161° |
| 2026-05-06 08:30 | 18.30026 | 72.90834 | 32879 ft | 369 kts | 161° |
| 2026-05-06 08:30 | 18.27574 | 72.91682 | 33209 ft | 377 kts | 161° |
| 2026-05-06 08:30 | 18.25081 | 72.92545 | 33532 ft | 386 kts | 161° |
| 2026-05-06 08:30 | 18.22509 | 72.93433 | 33973 ft | 390 kts | 161° |
| 2026-05-06 08:31 | 18.19917 | 72.94329 | 34322 ft | 398 kts | 161° |
| 2026-05-06 08:31 | 18.17260 | 72.95247 | 34626 ft | 406 kts | 161° |
| 2026-05-06 08:31 | 18.14562 | 72.96178 | 34883 ft | 415 kts | 161° |
| 2026-05-06 08:31 | 18.11797 | 72.97134 | 34915 ft | 430 kts | 161° |
| 2026-05-06 08:32 | 18.08895 | 72.98144 | 34943 ft | 445 kts | 160° |
| 2026-05-06 08:32 | 18.06000 | 72.99296 | 34935 ft | 452 kts | 158° |
| 2026-05-06 08:32 | 18.00135 | 73.01666 | 34882 ft | 448 kts | 158° |
| 2026-05-06 08:33 | 17.94407 | 73.03982 | 34857 ft | 446 kts | 158° |
| 2026-05-06 08:33 | 17.88636 | 73.06315 | 34858 ft | 446 kts | 158° |
| 2026-05-06 08:34 | 17.79961 | 73.09817 | 34858 ft | 446 kts | 158° |
| 2026-05-06 08:35 | 17.74227 | 73.12131 | 34859 ft | 446 kts | 158° |
| 2026-05-06 08:35 | 17.68466 | 73.14453 | 34880 ft | 445 kts | 158° |
| 2026-05-06 08:36 | 17.62678 | 73.16785 | 34907 ft | 445 kts | 158° |
| 2026-05-06 08:36 | 17.56914 | 73.19106 | 34933 ft | 445 kts | 158° |
| 2026-05-06 08:37 | 17.51165 | 73.21419 | 34938 ft | 445 kts | 158° |
| 2026-05-06 08:37 | 17.45410 | 73.23733 | 34938 ft | 445 kts | 158° |
| 2026-05-06 08:38 | 17.39648 | 73.26047 | 34938 ft | 445 kts | 158° |
| 2026-05-06 08:38 | 17.33912 | 73.28351 | 34911 ft | 445 kts | 158° |
| 2026-05-06 08:39 | 17.28218 | 73.30635 | 34911 ft | 445 kts | 158° |
| 2026-05-06 08:39 | 17.22334 | 73.32466 | 34924 ft | 446 kts | 163° |
| 2026-05-06 08:40 | 17.16370 | 73.34137 | 34909 ft | 446 kts | 163° |
| 2026-05-06 08:40 | 17.10394 | 73.35801 | 34909 ft | 446 kts | 163° |
| 2026-05-06 08:41 | 17.04393 | 73.37470 | 34911 ft | 451 kts | 164° |
| 2026-05-06 08:41 | 16.98351 | 73.39150 | 34910 ft | 454 kts | 164° |
| 2026-05-06 08:42 | 16.92269 | 73.40838 | 34911 ft | 455 kts | 164° |
| 2026-05-06 08:42 | 16.86186 | 73.42525 | 34911 ft | 455 kts | 164° |
| 2026-05-06 08:43 | 16.80103 | 73.44212 | 34911 ft | 455 kts | 164° |
| 2026-05-06 08:43 | 16.74016 | 73.45898 | 34911 ft | 455 kts | 164° |
| 2026-05-06 08:44 | 16.67928 | 73.47585 | 34910 ft | 455 kts | 164° |
| 2026-05-06 08:44 | 16.61833 | 73.49271 | 34911 ft | 455 kts | 164° |
| 2026-05-06 08:45 | 16.55710 | 73.50965 | 34911 ft | 455 kts | 164° |
| 2026-05-06 08:45 | 16.49649 | 73.52640 | 34911 ft | 455 kts | 164° |
| 2026-05-06 08:46 | 16.43550 | 73.54325 | 34911 ft | 455 kts | 164° |
| 2026-05-06 08:46 | 16.37463 | 73.56004 | 34910 ft | 455 kts | 164° |
| 2026-05-06 08:47 | 16.31441 | 73.57241 | 34908 ft | 456 kts | 168° |
| 2026-05-06 08:47 | 16.25352 | 73.58433 | 34897 ft | 456 kts | 168° |
| 2026-05-06 08:48 | 16.19125 | 73.59651 | 34883 ft | 455 kts | 168° |
| 2026-05-06 08:48 | 16.12925 | 73.60864 | 34870 ft | 455 kts | 168° |
| 2026-05-06 08:49 | 16.06751 | 73.62071 | 34845 ft | 455 kts | 168° |
| 2026-05-06 08:49 | 16.03647 | 73.62677 | 34631 ft | 460 kts | 168° |
| 2026-05-06 08:49 | 16.00456 | 73.63300 | 33377 ft | 470 kts | 168° |
| 2026-05-06 08:49 | 15.97276 | 73.63921 | 32164 ft | 475 kts | 168° |
| 2026-05-06 08:50 | 15.94067 | 73.64548 | 31367 ft | 468 kts | 168° |
| 2026-05-06 08:50 | 15.90926 | 73.65160 | 30678 ft | 461 kts | 168° |
| 2026-05-06 08:50 | 15.87784 | 73.65772 | 29987 ft | 453 kts | 168° |
| 2026-05-06 08:50 | 15.84745 | 73.66335 | 29306 ft | 447 kts | 169° |
| 2026-05-06 08:51 | 15.81708 | 73.66873 | 28621 ft | 441 kts | 169° |
| 2026-05-06 08:51 | 15.78727 | 73.67397 | 27940 ft | 435 kts | 169° |
| 2026-05-06 08:51 | 15.75758 | 73.67920 | 27254 ft | 429 kts | 169° |
| 2026-05-06 08:51 | 15.72860 | 73.68429 | 26577 ft | 424 kts | 169° |
| 2026-05-06 08:52 | 15.69951 | 73.68940 | 25891 ft | 419 kts | 169° |
| 2026-05-06 08:52 | 15.67109 | 73.69438 | 25213 ft | 415 kts | 169° |
| 2026-05-06 08:52 | 15.64254 | 73.69940 | 24039 ft | 423 kts | 169° |
| 2026-05-06 08:52 | 15.61365 | 73.70448 | 22833 ft | 430 kts | 169° |
| 2026-05-06 08:53 | 15.58430 | 73.70963 | 21624 ft | 435 kts | 169° |
| 2026-05-06 08:53 | 15.55472 | 73.71481 | 20662 ft | 433 kts | 169° |
| 2026-05-06 08:53 | 15.52542 | 73.71995 | 19664 ft | 431 kts | 169° |
| 2026-05-06 08:53 | 15.49618 | 73.72508 | 18635 ft | 429 kts | 169° |
| 2026-05-06 08:54 | 15.46696 | 73.73019 | 17644 ft | 427 kts | 170° |
| 2026-05-06 08:54 | 15.43824 | 73.73636 | 16642 ft | 423 kts | 166° |
| 2026-05-06 08:54 | 15.40986 | 73.74320 | 15609 ft | 421 kts | 166° |
| 2026-05-06 08:54 | 15.38170 | 73.74998 | 14546 ft | 420 kts | 166° |
| 2026-05-06 08:55 | 15.35345 | 73.75690 | 13483 ft | 417 kts | 164° |
| 2026-05-06 08:55 | 15.32841 | 73.77054 | 12770 ft | 403 kts | 140° |
| 2026-05-06 08:55 | 15.31133 | 73.79237 | 12110 ft | 390 kts | 117° |
| 2026-05-06 08:55 | 15.30218 | 73.81757 | 11442 ft | 368 kts | 108° |
| 2026-05-06 08:56 | 15.29576 | 73.84252 | 10731 ft | 356 kts | 94° |
| 2026-05-06 08:56 | 15.29911 | 73.86716 | 9984 ft | 345 kts | 72° |
| 2026-05-06 08:56 | 15.30496 | 73.89095 | 9349 ft | 335 kts | 76° |
| 2026-05-06 08:56 | 15.30975 | 73.91392 | 8723 ft | 327 kts | 77° |
| 2026-05-06 08:57 | 15.31438 | 73.93671 | 8088 ft | 320 kts | 77° |
| 2026-05-06 08:57 | 15.31888 | 73.95900 | 7457 ft | 315 kts | 76° |
| 2026-05-06 08:57 | 15.32335 | 73.98114 | 6801 ft | 310 kts | 76° |
| 2026-05-06 08:57 | 15.32768 | 74.00256 | 6146 ft | 307 kts | 76° |
| 2026-05-06 08:58 | 15.33202 | 74.02409 | 5457 ft | 299 kts | 76° |
| 2026-05-06 08:58 | 15.33957 | 74.04319 | 4648 ft | 289 kts | 50° |
| 2026-05-06 08:58 | 15.35520 | 74.05493 | 3917 ft | 277 kts | 19° |
| 2026-05-06 08:58 | 15.37320 | 74.05999 | 3285 ft | 268 kts | 3° |
| 2026-05-06 08:59 | 15.39148 | 74.05834 | 2795 ft | 254 kts | 349° |
| 2026-05-06 08:59 | 15.40632 | 74.05068 | 2636 ft | 233 kts | 313° |
| 2026-05-06 08:59 | 15.41299 | 74.03663 | 2700 ft | 210 kts | 290° |
| 2026-05-06 08:59 | 15.41445 | 74.02213 | 2683 ft | 195 kts | 271° |
| 2026-05-06 09:00 | 15.41342 | 74.00905 | 2739 ft | 170 kts | 268° |
| 2026-05-06 09:00 | 15.41188 | 73.99737 | 2746 ft | 162 kts | 266° |
| 2026-05-06 09:00 | 15.41001 | 73.98554 | 2745 ft | 165 kts | 264° |
| 2026-05-06 09:00 | 15.40799 | 73.97417 | 2658 ft | 158 kts | 264° |
| 2026-05-06 09:01 | 15.40594 | 73.96305 | 2450 ft | 156 kts | 264° |
| 2026-05-06 09:01 | 15.40388 | 73.95219 | 2262 ft | 154 kts | 264° |
| 2026-05-06 09:01 | 15.40181 | 73.94137 | 2056 ft | 153 kts | 264° |
| 2026-05-06 09:01 | 15.39973 | 73.93051 | 1855 ft | 151 kts | 264° |
| 2026-05-06 09:02 | 15.39768 | 73.91990 | 1650 ft | 151 kts | 264° |
| 2026-05-06 09:02 | 15.39561 | 73.90916 | 1439 ft | 151 kts | 264° |
| 2026-05-06 09:02 | 15.39356 | 73.89853 | 1227 ft | 150 kts | 264° |
| 2026-05-06 09:02 | 15.39150 | 73.88787 | 1010 ft | 149 kts | 264° |
| 2026-05-06 09:03 | 15.38949 | 73.87748 | 801 ft | 149 kts | 264° |
| 2026-05-06 09:03 | 15.38746 | 73.86699 | 612 ft | 147 kts | 264° |
| 2026-05-06 09:03 | 15.38539 | 73.85660 | 473 ft | 150 kts | 263° |
| 2026-05-06 09:03 | 15.38325 | 73.84613 | 216 ft | 141 kts | 264° |
| 2026-05-06 09:04 | 15.38177 | 73.83672 | 163 ft | 112 kts | 269° |
| 2026-05-06 09:04 | 15.38078 | 73.83179 | 160 ft | 37 kts | 252° |
| 2026-05-06 09:04 | 15.38026 | 73.82996 | 164 ft | 31 kts | 258° |
| 2026-05-06 09:04 | 15.37978 | 73.82745 | 166 ft | 37 kts | 261° |
| 2026-05-06 09:05 | 15.37995 | 73.82633 | 162 ft | 7 kts | 344° |
| 2026-05-06 09:05 | 15.38044 | 73.82619 | 159 ft | 6 kts | 345° |
| 2026-05-06 09:05 | 15.38088 | 73.82607 | 157 ft | 5 kts | 350° |
| 2026-05-06 09:05 | 15.38129 | 73.82603 | 155 ft | 5 kts | 0° |
| 2026-05-06 09:06 | 15.38163 | 73.82619 | 154 ft | 4 kts | 47° |
| 2026-05-06 09:06 | 15.38178 | 73.82640 | 155 ft | 1 kts | 64° |
| 2026-05-06 09:06 | 15.38180 | 73.82647 | 155 ft | 1 kts | 73° |
| 2026-05-06 09:06 | 15.38183 | 73.82658 | 155 ft | 1 kts | 55° |
| 2026-05-06 09:07 | 15.38252 | 73.82674 | 153 ft | 14 kts | 338° |
| 2026-05-06 09:07 | 15.38323 | 73.82663 | 150 ft | 0 kts | 349° |
| 2026-05-06 09:07 | 15.38331 | 73.82661 | 150 ft | 7 kts | 349° |
| 2026-05-06 09:07 | 15.38358 | 73.82657 | 149 ft | 0 kts | 349° |